Boca Raton, FL (33487)

5:15 PM EDT on April 25, 2017 (GMT -0400)
Bel Lido | | Change Station

Elev 10 ft 26.40 °N, 80.07 °W | Updated 7 seconds ago

Mostly Cloudy
Mostly Cloudy
85.5 °F
Feels Like 85 °F
N
5.8
Wind Variable Wind from WSW
Gusts 5.8 mph

Today
High -- | Low -- °F
--% Chance of Precip.
Yesterday
High -- | Low -- °F
Precip. -- in
Pressure 29.81 in
Visibility 10.0 miles
Clouds Scattered Clouds 6000 ft
Heat Index 85 °F
Dew Point 60 °F
Humidity 43%
Rainfall 0.00 in
Snow Depth Not available.
6:47 AM 7:49 PM
Waning Crescent, 1% visible
METAR KPMP 252053Z 24010KT 10SM SCT060 28/13 A2980 RMK AO2 SLP092 T02830133 56019
Pressure 29.81 in
Visibility 10.0 miles
Clouds Scattered Clouds 6000 ft
Heat Index 85 °F
Dew Point 60 °F
Humidity 43%
Rainfall 0.00 in
Snow Depth Not available.
6:47 AM 7:49 PM
Waning Crescent, 1% visible
METAR KPMP 252053Z 24010KT 10SM SCT060 28/13 A2980 RMK AO2 SLP092 T02830133 56019

Get Severe Weather Alerts

Thanks for signing up!

Be on the lookout for a verification email in your inbox.

You'll start receiving the daily forecast at 8 AM.

×

10-Day Weather Forecast

Almanac

Astronomy

Apr. 25, 2017 Rise Set
Actual Time
Civil Twilight
Nautical Twilight
Astronomical Twilight
Moon
Length of Visible Light
Length of Day
Tomorrow will be .
, % of the Moon is Illuminated

Today's Extremes

State Highs State Lows

Community

WunderPhotos

WunderBlog® & News

Nearby

Air Quality

  Air Quality AQ Index Pollutant
Not available.

Snow Depth

Station Depth Elevation

Earthquake Activity

City Distance Mag. Time & Date
Minimum magnitude displayed is 2.5.

Coastal Water Temperatures

Place Temperature

Stations

Nearby Weather Stations

Station Location Temp. Windchill Dew Point Humidity Wind Precip. Elev Updated Type
                   

Watches & Warnings

There are currently no watches in effect.